• Join FlightAware (Why Join?)
  • Login
  • US Flag 
12:40AM EDT


 

Airport Tracker/Info


-or-


 

Live Flight TrackerFlight Track Log ✈ CCA4523 ✈ 01-Sep-2013 ✈ ZUJZ / JZH - ZSPD / PVG

Flight Track Log - Related Links

Times and Time Zones

All times are in EDT time to prevent confusion due to time zone crossing. See the CCA4523 flight status page for this flight to view local times or setup timezone preferences in your user account.

Time Position Orientation Groundspeed Altitude Reporting Facility
EDT Latitude Longitude Course Direction KTS MPH feet Rate Location/Type
08:48PM 32.8376 104.4614 91° East  Level Estimated
08:49PM 32.8331 104.6171 92° East  Level Estimated
08:50PM 32.8285 104.7727 92° East  Level Estimated
08:51PM 32.8237 104.9283 92° East  Level Estimated
08:52PM 32.8186 105.0839 92° East  Level Estimated
08:53PM 32.8134 105.2395 92° East  Level Estimated
08:54PM 32.8080 105.3951 92° East  Level Estimated
08:55PM 32.8023 105.5506 92° East  Level Estimated
08:55PM 32.8130 104.4370 93° East 455 524 27,100  Level FlightAware
08:56PM 32.7965 105.7061 93° East  Level Estimated
08:56PM 32.7840 104.5270 111° Southeast 457 526 27,100  Level FlightAware
08:56PM 32.7610 104.5980 111° Southeast 457 526 27,100  Level FlightAware
08:57PM 32.7370 104.6720 111° Southeast 457 526 27,100  Level FlightAware
08:57PM 32.7160 104.7380 111° Southeast 457 526 27,100  Level FlightAware
08:58PM 32.6920 104.8100 112° Southeast 457 526 27,100  Level FlightAware
08:59PM 32.6690 104.8840 110° East 457 526 27,100 60 Level FlightAware
09:01PM 32.6620 105.1792 92° East  Level Estimated
09:02PM 32.6580 105.3346 92° East  Level Estimated
09:03PM 32.6539 105.4899 92° East  Level Estimated
09:04PM 32.6496 105.6452 92° East  Level Estimated
09:05PM 32.6450 105.8006 92° East  Level Estimated
09:06PM 32.6403 105.9559 92° East  Level Estimated
09:07PM 32.6354 106.1111 92° East  Level Estimated
09:08PM 32.6303 106.2664 92° East  Level Estimated
09:09PM 32.6250 106.4217 92° East  Level Estimated
09:10PM 32.6195 106.5769 92° East  Level Estimated
09:11PM 32.6138 106.7321 92° East  Level Estimated
09:12PM 32.6079 106.8873 93° East  Level Estimated
09:13PM 32.6019 107.0424 93° East  Level Estimated
09:14PM 32.5956 107.1976 93° East  Level Estimated
09:15PM 32.5892 107.3527 93° East  Level Estimated
09:16PM 32.5825 107.5078 93° East  Level Estimated
09:17PM 32.5757 107.6629 93° East  Level Estimated
09:18PM 32.5687 107.8179 93° East  Level Estimated
09:19PM 32.5615 107.9730 93° East  Level Estimated
09:20PM 32.5541 108.1280 93° East  Level Estimated
09:21PM 32.5465 108.2830 93° East  Level Estimated
09:22PM 32.5387 108.4379 93° East  Level Estimated
09:23PM 32.5307 108.5928 93° East  Level Estimated
09:24PM 32.5226 108.7477 94° East  Level Estimated
09:25PM 32.5142 108.9026 94° East  Level Estimated
09:26PM 32.5057 109.0574 94° East  Level Estimated
09:27PM 32.4970 109.2122 94° East  Level Estimated
09:28PM 32.4881 109.3670 94° East  Level Estimated
09:29PM 32.4790 109.5218 94° East  Level Estimated
09:30PM 32.4697 109.6765 94° East  Level Estimated
09:31PM 32.4602 109.8312 94° East  Level Estimated
09:32PM 32.4505 109.9858 94° East  Level Estimated
09:33PM 32.4407 110.1404 94° East  Level Estimated
09:34PM 32.4306 110.2950 94° East  Level Estimated
09:35PM 32.4204 110.4496 94° East  Level Estimated
09:36PM 32.4099 110.6041 95° East  Level Estimated
09:37PM 32.3993 110.7586 95° East  Level Estimated
09:38PM 32.3885 110.9130 95° East  Level Estimated
09:39PM 32.3775 111.0674 95° East  Level Estimated
09:40PM 32.3663 111.2218 95° East  Level Estimated
09:41PM 32.3550 111.3761 95° East  Level Estimated
09:42PM 32.3434 111.5304 95° East  Level Estimated
09:43PM 32.3317 111.6846 95° East  Level Estimated
09:44PM 32.3198 111.8389 95° East  Level Estimated
09:45PM 32.3076 111.9930 95° East  Level Estimated
09:46PM 32.2953 112.1472 95° East  Level Estimated
09:47PM 32.2828 112.3012 95° East  Level Estimated
09:48PM 32.2701 112.4553 96° East  Level Estimated
09:49PM 32.2573 112.6093 96° East  Level Estimated
09:50PM 32.2442 112.7632 96° East  Level Estimated
09:51PM 32.2310 112.9171 96° East  Level Estimated
09:52PM 32.2176 113.0710 96° East  Level Estimated
09:53PM 32.2039 113.2248 96° East  Level Estimated
09:54PM 32.1902 113.3786 96° East  Level Estimated
09:55PM 32.1762 113.5323 96° East  Level Estimated
09:56PM 32.1620 113.6860 96° East  Level Estimated
09:57PM 32.1476 113.8396 96° East  Level Estimated
09:58PM 32.1331 113.9932 96° East  Level Estimated
09:59PM 32.1184 114.1467 96° East  Level Estimated
10:00PM 32.1035 114.3002 97° East  Level Estimated
10:01PM 32.0883 114.4536 97° East  Level Estimated
10:02PM 32.0731 114.6070 97° East  Level Estimated
10:03PM 32.0576 114.7604 97° East  Level Estimated
10:04PM 32.0420 114.9136 97° East  Level Estimated
10:05PM 32.0261 115.0668 97° East  Level Estimated
10:06PM 32.0101 115.2200 97° East  Level Estimated
10:07PM 31.9939 115.3731 97° East  Level Estimated
10:08PM 31.9775 115.5262 97° East  Level Estimated
10:09PM 31.9609 115.6792 97° East  Level Estimated
10:10PM 31.9442 115.8322 97° East  Level Estimated
10:11PM 31.9272 115.9851 97° East  Level Estimated
10:12PM 31.9101 116.1379 97° East  Level Estimated
10:13PM 31.8928 116.2907 98° East  Level Estimated
10:14PM 31.8753 116.4434 98° East  Level Estimated
10:15PM 31.8577 116.5961 98° East  Level Estimated
10:16PM 31.8398 116.7487 98° East  Level Estimated
10:17PM 31.8218 116.9012 98° East  Level Estimated
10:18PM 31.8036 117.0537 98° East  Level Estimated
10:19PM 31.7852 117.2061 98° East  Level Estimated
10:20PM 31.7666 117.3585 98° East  Level Estimated
10:21PM 31.7478 117.5108 98° East  Level Estimated
10:22PM 31.7289 117.6631 98° East  Level Estimated
10:23PM 31.7097 117.8152 98° East  Level Estimated
10:24PM 31.6905 117.9674 98° East  Level Estimated
10:25PM 31.6710 118.1194 99° East  Level Estimated
10:26PM 31.6513 118.2714 99° East  Level Estimated
10:27PM 31.6315 118.4233 99° East  Level Estimated
10:28PM 31.6115 118.5752 99° East  Level Estimated
10:29PM 31.5912 118.7270 99° East  Level Estimated
10:29PM 31.6250 118.7300 99° East 503 579 35,100  Level FlightAware
10:30PM 31.5709 118.8787 99° East  Level Estimated
10:30PM 31.6170 118.8310 95° East 503 579 35,100  Level FlightAware
10:30PM 31.6100 118.9260 95° East 502 578 35,100  Level FlightAware
10:31PM 31.6050 119.0160 94° East 502 578 35,100  Level FlightAware
10:32PM 31.6000 119.1000 94° East 502 578 35,100  Level FlightAware
10:33PM 31.5900 119.2610 94° East 504 580 35,100  Level FlightAware
10:33PM 31.5870 119.3450 92° East 504 580 35,100  Level FlightAware
10:34PM 31.5850 119.4240 92° East 504 580 35,100  Level FlightAware
10:34PM 31.5820 119.5100 92° East 504 580 35,100  Level FlightAware
10:35PM 31.5800 119.5920 92° East 504 580 35,100  Level FlightAware
10:36PM 31.5770 119.6850 92° East 504 580 35,100  Level FlightAware
10:36PM 31.5740 119.7680 92° East 504 580 35,100  Level FlightAware
10:37PM 31.5720 119.8540 92° East 504 580 35,100  Level FlightAware
10:37PM 31.5690 119.9380 92° East 504 580 35,100  Level FlightAware
10:38PM 31.5670 120.0240 92° East 504 580 35,100  Level FlightAware
10:39PM 31.5640 120.1080 92° East 504 580 35,100  Level FlightAware
10:39PM 31.5620 120.1890 92° East 504 580 35,100 -14,940 Level FlightAware
10:40PM 31.5750 120.3700 85° East 436 502 20,700 -14,940 Descending FlightAware
10:40PM 31.5530 120.4510 108° East 433 498 20,700  Level FlightAware
10:41PM 31.5340 120.5150 109° East 435 501 20,700 -420 Level FlightAware
10:41PM 31.5110 120.5910 110° East 429 494 20,300 -1,140 Descending FlightAware
10:42PM 31.4840 120.6810 109° East 418 481 19,300 -1,440 Descending FlightAware
10:42PM 31.4630 120.7470 110° East 411 473 18,500 -1,620 Descending FlightAware
10:43PM 31.4430 120.8150 109° East 410 472 17,600 -1,680 Descending FlightAware
10:44PM 31.4200 120.8880 110° East 403 464 16,700 -1,500 Descending FlightAware
10:44PM 31.3980 120.9590 110° East 397 457 15,900 -1,380 Descending FlightAware
10:45PM 31.3770 121.0300 109° East 390 449 15,000 -1,560 Descending FlightAware
10:45PM 31.3540 121.0990 111° Southeast 382 440 14,100 -1,680 Descending FlightAware
10:46PM 31.3320 121.1310 129° Southeast 375 432 13,600 -1,200 Descending FlightAware
10:46PM 31.2930 121.1710 139° Southeast 369 425 13,100 -1,020 Descending FlightAware
10:47PM 31.2480 121.2160 139° Southeast 367 422 12,500 -1,080 Descending FlightAware
10:47PM 31.1970 121.2670 139° Southeast 368 423 11,800 -1,020 Descending FlightAware
10:48PM 31.1600 121.3050 139° Southeast 357 411 11,300 -1,020 Descending FlightAware
10:48PM 31.1270 121.3520 129° Southeast 333 383 10,800 -960 Descending FlightAware
10:49PM 31.1240 121.3770 98° East 323 372 10,600 -720 Descending FlightAware
10:49PM 31.1260 121.4350 88° East 305 351 10,200 -780 Descending FlightAware
10:50PM 31.1270 121.4670 88° East 296 341 9,900 -900 Descending FlightAware
10:50PM 31.1270 121.4990 90° East 284 327 9,600 -720 Descending FlightAware
10:50PM 31.1280 121.5190 87° East 276 318 9,500 -780 Descending FlightAware
10:51PM 31.1280 121.5550 90° East 263 303 9,100 -900 Descending FlightAware
10:51PM 31.1290 121.5900 88° East 253 291 8,800 -720 Descending FlightAware
10:51PM 31.1290 121.6230 90° East 243 280 8,500 -420 Descending FlightAware
10:52PM 31.1300 121.6610 88° East 242 278 8,400 -720 Descending FlightAware
10:52PM 31.1180 121.6740 137° Southeast 230 265 8,000 -1,800 Descending FlightAware
10:52PM 31.1130 121.6780 146° Southeast 231 266 7,900 -300 Descending FlightAware
10:52PM 31.0980 121.6840 161° South 241 277 7,900 -180 Level FlightAware
10:53PM 31.0750 121.6920 163° South 230 265 7,800 -720 Descending FlightAware
10:53PM 31.0590 121.6970 165° South 240 276 7,500 -1,440 Descending FlightAware
10:53PM 31.0430 121.7030 162° South 235 270 7,100 -1,620 Descending FlightAware
10:54PM 31.0210 121.7100 165° South 238 274 6,600 -1,320 Descending FlightAware
10:54PM 31.0040 121.7150 166° South 235 270 6,300 -1,200 Descending FlightAware
10:54PM 30.9770 121.7240 164° South 232 267 5,800 -1,260 Descending FlightAware
10:55PM 30.9510 121.7320 165° South 239 275 5,300 -1,080 Descending FlightAware
10:55PM 30.9290 121.7390 165° South 236 272 5,000 -720 Descending FlightAware
10:55PM 30.9140 121.7440 164° South 238 274 4,900 -240 Descending FlightAware
10:56PM 30.8920 121.7510 165° South 236 272 4,900  Level FlightAware
10:56PM 30.8780 121.7550 166° South 222 255 4,900 -240 Level FlightAware
10:56PM 30.8680 121.7610 153° Southeast 211 243 4,800 -600 Descending FlightAware
10:56PM 30.8630 121.7670 134° Southeast 196 226 4,700 -900 Descending FlightAware
10:56PM 30.8590 121.7790 111° Southeast 193 222 4,500 -1,200 Descending FlightAware
10:56PM 30.8590 121.7830 90° East 190 219 4,400 -240 Descending FlightAware
10:57PM 30.8590 121.8050 90° East 190 219 4,400 -720 Level FlightAware
10:57PM 30.8590 121.8270 90° East 188 216 3,900 -780 Descending FlightAware
10:58PM 30.8640 121.8470 74° East 179 206 3,900  Level FlightAware
10:58PM 30.8660 121.8490 41° Northeast 178 205 3,900  Level FlightAware
10:58PM 30.8740 121.8540 28° Northeast 175 201 3,900  Level FlightAware
10:58PM 30.8850 121.8580 17° North 168 193 3,900 -540 Level FlightAware
10:58PM 30.9020 121.8620 11° North 169 194 3,600 -840 Descending FlightAware
10:59PM 30.9220 121.8670 12° North 166 191 3,300 -300 Descending FlightAware
10:59PM 30.9450 121.8680 North 175 201 3,300 -480 Level FlightAware
11:00PM 30.9540 121.8590 319° Northwest 171 197 3,000 -960 Descending FlightAware
11:00PM 30.9650 121.8550 343° North 173 199 3,000 -240 Level FlightAware
11:00PM 30.9810 121.8490 342° North 167 192 2,900 -540 Descending FlightAware
11:00PM 30.9920 121.8450 343° North 169 194 2,700 -900 Descending FlightAware
11:01PM 31.0070 121.8390 341° North 157 181 2,400 -1,020 Descending FlightAware
11:01PM 31.0140 121.8360 340° North 155 178 2,200 -900 Descending FlightAware
11:01PM 31.0310 121.8300 343° North 135 155 1,900 -720 Descending FlightAware
11:02PM 31.0460 121.8250 344° North 134 154 1,600 -540 Descending FlightAware
11:02PM 31.0550 121.8210 339° North 120 138 1,500 -720 Descending FlightAware
11:02PM 31.0710 121.8150 342° North 122 140 1,100 -480 Descending FlightAware
11:03PM 31.0840 121.8100 342° North 124 143 1,100 -720 Level FlightAware
11:03PM 31.0960 121.8050 340° North 122 140 600 -1,140 Descending FlightAware
11:04PM 31.1130 121.7990 343° North 118 136 300 -300 Descending FlightAware
11:04PM 31.1280 121.7930 341° North 118 136 300  Level FlightAware